Texas Enterprise — KSDF — position and weather

sailwx.info

Track history (hours):
 
Tides and Currents Weather Stations Pressure Air Temp Water Temp Dewpoint Dewpoint Depression Visibility Wind Speed Wind Dir Waves Ship Positions

Texas Enterprise

Owner: U.S. United Ocean Services, LLC, Tampa, FL. More information available from US FCC via Universal Licensing System and Coast Guard Vessel Documentation Center.

Last reported at 2017-Jan-17 23:22 UTC. Time now 2017-Jan-18 10:16 UTC.
Position N 36°13' E 014°42'.

Type: Cargo ship. MMSI: 366163000.

Date/timePositionNaut miles runAvg speedWind from/ knotsBaromVisibWave heightAir tempDewpointWater temp
2017-Jan-17 23:22N 36°13' E 014°42'1214.6
2017-Jan-17 22:33N 36°17' E 014°28'1515.0
2017-Jan-17 21:33N 36°22' E 014°10'1414.4
2017-Jan-17 20:33N 36°27' E 013°53'5714.2
2017-Jan-17 16:33N 36°46' E 012°47'1414.4
2017-Jan-17 15:33N 36°51' E 012°30'  
2017-Jan-12 02:19N 34°20' W 024°05'1113.2
2017-Jan-12 01:30N 34°18' W 024°18'1212.9
2017-Jan-12 00:33N 34°17' W 024°32'1413.1
2017-Jan-11 23:32N 34°16' W 024°49'2613.1
2017-Jan-11 21:33N 34°13' W 025°20'  
Track history (hours):
 
Tides and Currents Weather Stations Pressure Air Temp Water Temp Dewpoint Dewpoint Depression Visibility Wind Speed Wind Dir Waves Ship Positions

Texas Enterprise

Owner: U.S. United Ocean Services, LLC, Tampa, FL. More information available from US FCC via Universal Licensing System and Coast Guard Vessel Documentation Center.

Last reported at 2017-Jan-17 23:22 UTC. Time now 2017-Jan-18 10:16 UTC.
Position N 36°13' E 014°42'.

Type: Cargo ship. MMSI: 366163000.

Date/timePositionNaut miles runAvg speedWind from/ knotsBaromVisibWave heightAir tempDewpointWater temp
2017-Jan-17 23:22N 36°13' E 014°42'1214.6
2017-Jan-17 22:33N 36°17' E 014°28'1515.0
2017-Jan-17 21:33N 36°22' E 014°10'1414.4
2017-Jan-17 20:33N 36°27' E 013°53'5714.2
2017-Jan-17 16:33N 36°46' E 012°47'1414.4
2017-Jan-17 15:33N 36°51' E 012°30'  
2017-Jan-12 02:19N 34°20' W 024°05'1113.2
2017-Jan-12 01:30N 34°18' W 024°18'1212.9
2017-Jan-12 00:33N 34°17' W 024°32'1413.1
2017-Jan-11 23:32N 34°16' W 024°49'2613.1
2017-Jan-11 21:33N 34°13' W 025°20'  

Dump ship's entire track history